Southern Star — IP8222 — position and weather

sailwx.info

Track history (hours):
 
Tides and Currents Weather Stations Pressure Air Temp Water Temp Dewpoint Dewpoint Depression Visibility Wind Speed Wind Dir Waves Ship Positions

Southern Star

Last reported at 2017-Nov-19 15:02 UTC. Time now 2017-Nov-23 01:53 UTC.
Position N 27°49' W 015°17'.

Type: Pleasure craft. MMSI: 247049130.

Date/timePositionNaut miles runAvg speedWind from/ knotsBaromVisibWave heightAir tempDewpointWater temp
2017-Nov-19 15:02N 27°49' W 015°17'2 9.6
2017-Nov-19 14:52N 27°51' W 015°17'3 7.7
2017-Nov-19 14:25N 27°54' W 015°18'4 8.9
2017-Nov-19 14:00N 27°58' W 015°20'4 8.4
2017-Nov-19 13:30N 28°01' W 015°21'4 8.0
2017-Nov-19 13:01N 28°05' W 015°24'2 4.6
2017-Nov-19 12:30N 28°07' W 015°25'1 1.5
2017-Nov-19 11:51N 28°08' W 015°26'0 0.2
2017-Nov-19 11:30N 28°08' W 015°25'0 0.0
2017-Nov-19 11:00N 28°08' W 015°25'0 0.0
2017-Nov-19 10:21N 28°08' W 015°25'0 0.0
2017-Nov-19 10:00N 28°08' W 015°25'0 0.0
2017-Nov-19 09:30N 28°08' W 015°25'0 0.0
2017-Nov-19 09:00N 28°08' W 015°25'0 0.0
2017-Nov-19 08:21N 28°08' W 015°25'0 0.0
2017-Nov-19 01:19N 28°08' W 015°25'0 0.0
2017-Nov-19 00:58N 28°08' W 015°25'0 0.0
2017-Nov-19 00:28N 28°08' W 015°25'0 0.0
2017-Nov-18 23:49N 28°08' W 015°25'0 0.0
2017-Nov-18 23:16N 28°08' W 015°25'0 0.0
2017-Nov-18 22:49N 28°08' W 015°25'0 0.0
2017-Nov-18 22:22N 28°08' W 015°25'0 0.0
2017-Nov-18 21:52N 28°08' W 015°25'0 0.0
2017-Nov-18 21:22N 28°08' W 015°25'0 0.0
2017-Nov-18 20:52N 28°08' W 015°25'0 0.0
2017-Nov-18 20:22N 28°08' W 015°25'0 0.0
2017-Nov-18 19:52N 28°08' W 015°25'0 0.0
2017-Nov-18 19:25N 28°08' W 015°25'0 0.0
2017-Nov-18 18:52N 28°08' W 015°25'0 0.0
2017-Nov-18 18:25N 28°08' W 015°25'0 0.0
2017-Nov-18 17:55N 28°08' W 015°25'0 0.0
2017-Nov-18 17:25N 28°08' W 015°25'0 0.0
2017-Nov-18 16:58N 28°08' W 015°25'0 0.0
2017-Nov-18 16:28N 28°08' W 015°25'0 0.0
2017-Nov-18 15:58N 28°08' W 015°25'0 0.0
2017-Nov-18 15:28N 28°08' W 015°25'0 0.0
2017-Nov-18 14:58N 28°08' W 015°25'0 0.0
2017-Nov-18 14:28N 28°08' W 015°25'0 0.0
2017-Nov-18 13:58N 28°08' W 015°25'0 0.0
2017-Nov-18 13:28N 28°08' W 015°25'0 0.0
2017-Nov-18 12:58N 28°08' W 015°25'0 0.0
2017-Nov-18 12:28N 28°08' W 015°25'0 0.0
2017-Nov-18 11:46N 28°08' W 015°25'0 0.0
2017-Nov-18 11:28N 28°08' W 015°25'0 0.0
2017-Nov-18 10:58N 28°08' W 015°25'0 0.0
2017-Nov-18 10:28N 28°08' W 015°25'0 0.0
2017-Nov-17 23:18N 28°08' W 015°25'0 0.0
2017-Nov-17 23:00N 28°08' W 015°25'0 0.0
2017-Nov-17 22:30N 28°08' W 015°25'0 0.0
2017-Nov-17 22:00N 28°08' W 015°25'0 0.0
2017-Nov-17 21:30N 28°08' W 015°25'0 0.0
2017-Nov-17 21:00N 28°08' W 015°25'0 0.0
2017-Nov-17 20:30N 28°08' W 015°25'0 0.0
2017-Nov-17 19:48N 28°08' W 015°25'0 0.0
2017-Nov-17 19:21N 28°08' W 015°25'0 0.0
2017-Nov-17 18:57N 28°08' W 015°25'0 0.0
2017-Nov-17 18:30N 28°08' W 015°25'0 0.0
2017-Nov-17 18:00N 28°08' W 015°25'0 0.0
2017-Nov-17 17:30N 28°08' W 015°25'0 0.0
2017-Nov-17 17:00N 28°08' W 015°25'0 0.2
2017-Nov-17 16:30N 28°08' W 015°26'2 4.4
2017-Nov-17 16:00N 28°09' W 015°24'1 2.1
2017-Nov-17 15:30N 28°10' W 015°24'2 3.5
2017-Nov-17 14:59N 28°08' W 015°23'2 3.5
2017-Nov-17 14:28N 28°07' W 015°25'1 1.4
2017-Nov-17 13:50N 28°08' W 015°25'0 0.0
2017-Nov-17 13:23N 28°08' W 015°25'0 0.0
2017-Nov-17 12:38N 28°08' W 015°25'0 0.0
2017-Nov-17 12:23N 28°08' W 015°25'0 0.0
2017-Nov-17 11:53N 28°08' W 015°25'0 0.0
2017-Nov-17 11:23N 28°08' W 015°25'0 0.0
2017-Nov-17 10:56N 28°08' W 015°25'0 0.0
2017-Nov-17 10:26N 28°08' W 015°25'0 0.0
2017-Nov-17 09:50N 28°08' W 015°25'0 0.0
2017-Nov-17 09:26N 28°08' W 015°25'0 0.0
2017-Nov-17 08:56N 28°08' W 015°25'0 0.0
2017-Nov-17 08:26N 28°08' W 015°25'0 0.0
2017-Nov-17 07:59N 28°08' W 015°25'0 0.0
2017-Nov-17 07:29N 28°08' W 015°25'0 0.0
2017-Nov-17 06:59N 28°08' W 015°25'0 0.0
2017-Nov-17 06:29N 28°08' W 015°25'0 0.0
2017-Nov-17 05:41N 28°08' W 015°25'0 0.0
2017-Nov-17 05:29N 28°08' W 015°25'0 0.0
2017-Nov-17 04:59N 28°08' W 015°25'0 0.0
2017-Nov-17 04:29N 28°08' W 015°25'0 0.0
2017-Nov-17 03:59N 28°08' W 015°25'0 0.0
2017-Nov-17 03:17N 28°08' W 015°25'0 0.0
2017-Nov-17 02:59N 28°08' W 015°25'0 0.0
2017-Nov-17 02:29N 28°08' W 015°25'0 0.0
2017-Nov-17 01:59N 28°08' W 015°25'0 0.0
2017-Nov-17 01:29N 28°08' W 015°25'0 0.0
2017-Nov-17 00:50N 28°08' W 015°25'0 0.0
2017-Nov-17 00:20N 28°08' W 015°25'0 0.0
2017-Nov-16 23:53N 28°08' W 015°25'0 0.0
2017-Nov-16 23:23N 28°08' W 015°25'0 0.0
2017-Nov-16 22:53N 28°08' W 015°25'0 0.0
2017-Nov-16 22:23N 28°08' W 015°25'0 0.0
2017-Nov-16 21:05N 28°08' W 015°25'0 0.0
2017-Nov-16 20:50N 28°08' W 015°25'0 0.0
2017-Nov-16 20:20N 28°08' W 015°25'0 0.0
2017-Nov-16 19:53N 28°08' W 015°25'0 0.0
2017-Nov-16 19:23N 28°08' W 015°25'0 0.0
2017-Nov-16 18:50N 28°08' W 015°25'0 0.0
2017-Nov-16 18:23N 28°08' W 015°25'0 0.0
2017-Nov-16 17:56N 28°08' W 015°25'0 0.0
2017-Nov-16 17:26N 28°08' W 015°25'0 0.0
2017-Nov-16 16:53N 28°08' W 015°25'0 0.0
2017-Nov-16 16:26N 28°08' W 015°25'0 0.0
2017-Nov-16 01:33N 28°08' W 015°25'0 0.0
2017-Nov-16 01:30N 28°08' W 015°25'0 0.0
2017-Nov-16 01:00N 28°08' W 015°25'0 0.0
2017-Nov-16 00:30N 28°08' W 015°25'0 0.0
2017-Nov-16 00:00N 28°08' W 015°25'0 0.0
2017-Nov-15 23:30N 28°08' W 015°25'0 0.0
2017-Nov-15 23:00N 28°08' W 015°25'0 0.0
2017-Nov-15 22:30N 28°08' W 015°25'0 0.0
2017-Nov-15 22:00N 28°08' W 015°25'0 0.0
2017-Nov-15 21:21N 28°08' W 015°25'0 0.0
2017-Nov-15 20:51N 28°08' W 015°25'0 0.0
2017-Nov-15 20:21N 28°08' W 015°25'0 0.0
2017-Nov-15 19:51N 28°08' W 015°25'0 0.0
2017-Nov-15 19:24N 28°08' W 015°25'0 0.0
2017-Nov-15 18:48N 28°08' W 015°25'0 0.0
2017-Nov-15 18:18N 28°08' W 015°25'0 0.0
2017-Nov-15 17:54N 28°08' W 015°25'0 0.0
2017-Nov-15 17:24N 28°08' W 015°25'1 1.3
2017-Nov-15 16:57N 28°07' W 015°25'1 0.1
2017-Nov-15 12:30N 28°08' W 015°25'0 0.0
2017-Nov-15 11:57N 28°08' W 015°25'0 0.0
2017-Nov-15 11:30N 28°08' W 015°25'0 0.0
2017-Nov-15 11:00N 28°08' W 015°25'0 0.0
2017-Nov-15 10:22N 28°08' W 015°25'0 0.0
2017-Nov-15 09:52N 28°08' W 015°25'0 0.0
2017-Nov-15 09:07N 28°08' W 015°25'0 0.0
2017-Nov-15 08:49N 28°08' W 015°25'0 0.0
2017-Nov-15 08:22N 28°08' W 015°25'0 0.0
2017-Nov-15 07:55N 28°08' W 015°25'0 0.0
2017-Nov-15 07:25N 28°08' W 015°25'0 0.0
2017-Nov-15 06:55N 28°08' W 015°25'0 0.0
2017-Nov-15 06:25N 28°08' W 015°25'0 0.0
2017-Nov-15 05:55N 28°08' W 015°25'0 0.0
2017-Nov-15 05:28N 28°08' W 015°25'0 0.0
2017-Nov-15 04:58N 28°08' W 015°25'0 0.0
2017-Nov-15 04:28N 28°08' W 015°25'0 0.0
2017-Nov-15 03:58N 28°08' W 015°25'0 0.0
2017-Nov-15 03:28N 28°08' W 015°25'0 0.0
2017-Nov-15 02:58N 28°08' W 015°25'0 0.0
2017-Nov-15 02:28N 28°08' W 015°25'0 0.0
2017-Nov-15 01:58N 28°08' W 015°25'0 0.0
2017-Nov-15 01:28N 28°08' W 015°25'0 0.0
2017-Nov-15 00:58N 28°08' W 015°25'0 0.0
2017-Nov-15 00:16N 28°08' W 015°25'0 0.0
2017-Nov-14 23:58N 28°08' W 015°25'0 0.0
2017-Nov-14 23:19N 28°08' W 015°25'0 0.0
2017-Nov-14 22:58N 28°08' W 015°25'0 0.0
2017-Nov-14 22:19N 28°08' W 015°25'0 0.0
2017-Nov-14 21:49N 28°08' W 015°25'0 0.0
2017-Nov-14 21:19N 28°08' W 015°25'0 0.0
2017-Nov-14 20:52N 28°08' W 015°25'0 0.0
2017-Nov-14 20:22N 28°08' W 015°25'0 0.0
2017-Nov-14 19:52N 28°08' W 015°25'0 0.0
2017-Nov-14 19:22N 28°08' W 015°25'0 0.0
2017-Nov-14 18:52N 28°08' W 015°25'0 0.0
2017-Nov-14 18:25N 28°08' W 015°25'0 0.0
2017-Nov-14 17:55N 28°08' W 015°25'0 0.0
2017-Nov-14 17:25N 28°08' W 015°25'0 0.0
2017-Nov-14 16:52N 28°08' W 015°25'0 0.0
2017-Nov-14 16:25N 28°08' W 015°25'0 0.0
2017-Nov-14 15:52N 28°08' W 015°25'0 0.0
2017-Nov-14 15:25N 28°08' W 015°25'0 0.0
2017-Nov-14 14:55N 28°08' W 015°25'0 0.0
2017-Nov-14 14:28N 28°08' W 015°25'0 0.0
2017-Nov-14 13:58N 28°08' W 015°25'0 0.0
2017-Nov-14 13:25N 28°08' W 015°25'0 0.0
2017-Nov-14 12:58N 28°08' W 015°25'0 0.0
2017-Nov-14 12:28N 28°08' W 015°25'0 0.0
2017-Nov-14 11:43N 28°08' W 015°25'0 0.0
2017-Nov-14 11:28N 28°08' W 015°25'0 0.0
2017-Nov-14 10:46N 28°08' W 015°25'0 0.0
2017-Nov-14 10:28N 28°08' W 015°25'0 0.0
2017-Nov-14 09:58N 28°08' W 015°25'0 0.0
2017-Nov-14 09:28N 28°08' W 015°25'0 0.0
2017-Nov-14 08:58N 28°08' W 015°25'0 0.0
2017-Nov-14 08:19N 28°08' W 015°25'0 0.0
2017-Nov-14 07:49N 28°08' W 015°25'0 0.0
2017-Nov-14 07:19N 28°08' W 015°25'0 0.0
2017-Nov-14 06:52N 28°08' W 015°25'0 0.0
2017-Nov-14 06:22N 28°08' W 015°25'0 0.0
2017-Nov-14 05:52N 28°08' W 015°25'0 0.0
2017-Nov-14 04:49N 28°08' W 015°25'0 0.0
2017-Nov-14 04:25N 28°08' W 015°25'0 0.0
2017-Nov-14 03:55N 28°08' W 015°25'0 0.0
2017-Nov-14 03:25N 28°08' W 015°25'0 0.0
2017-Nov-14 02:40N 28°08' W 015°25'0 0.0
2017-Nov-14 02:25N 28°08' W 015°25'0 0.0
2017-Nov-14 01:55N 28°08' W 015°25'0 0.0
2017-Nov-14 01:28N 28°08' W 015°25'0 0.0
2017-Nov-14 00:55N 28°08' W 015°25'0 0.0
2017-Nov-14 00:28N 28°08' W 015°25'0 0.0
2017-Nov-13 23:55N 28°08' W 015°25'0 0.0
2017-Nov-13 23:28N 28°08' W 015°25'0 0.0
2017-Nov-13 22:55N 28°08' W 015°25'0 0.0
2017-Nov-13 22:28N 28°08' W 015°25'0 0.0
2017-Nov-13 21:58N 28°08' W 015°25'0 0.0
2017-Nov-11 20:10N 28°08' W 015°25'0 0.0
2017-Nov-11 19:52N 28°08' W 015°25'0 0.0
2017-Nov-11 19:28N 28°08' W 015°25'0 0.0
2017-Nov-11 18:58N 28°08' W 015°25'0 0.0
2017-Nov-11 18:28N 28°08' W 015°25'0 0.0
2017-Nov-11 17:58N 28°08' W 015°25'0 0.0
2017-Nov-11 17:28N 28°08' W 015°25'0 0.0
2017-Nov-11 16:58N 28°08' W 015°25'0 0.0
2017-Nov-11 16:25N 28°08' W 015°25'0 0.0
2017-Nov-11 15:58N 28°08' W 015°25'0 0.0
2017-Nov-11 12:58N 28°08' W 015°25'0 0.0
2017-Nov-11 12:19N 28°08' W 015°25'0 0.0
2017-Nov-11 11:49N 28°08' W 015°25'0 0.0
2017-Nov-10 13:13N 28°08' W 015°25'0 0.0
2017-Nov-10 12:58N 28°08' W 015°25'0 0.0
2017-Nov-10 12:28N 28°08' W 015°25'0 0.0
2017-Nov-10 11:55N 28°08' W 015°25'0 0.0
2017-Nov-10 11:28N 28°08' W 015°25'0 0.0
2017-Nov-10 10:58N 28°08' W 015°25'0 0.0
2017-Nov-10 10:16N 28°08' W 015°25'0 0.0
2017-Nov-10 09:58N 28°08' W 015°25'  
Track history (hours):
 
Tides and Currents Weather Stations Pressure Air Temp Water Temp Dewpoint Dewpoint Depression Visibility Wind Speed Wind Dir Waves Ship Positions

Southern Star

Last reported at 2017-Nov-19 15:02 UTC. Time now 2017-Nov-23 01:53 UTC.
Position N 27°49' W 015°17'.

Type: Pleasure craft. MMSI: 247049130.

Date/timePositionNaut miles runAvg speedWind from/ knotsBaromVisibWave heightAir tempDewpointWater temp
2017-Nov-19 15:02N 27°49' W 015°17'2 9.6
2017-Nov-19 14:52N 27°51' W 015°17'3 7.7
2017-Nov-19 14:25N 27°54' W 015°18'4 8.9
2017-Nov-19 14:00N 27°58' W 015°20'4 8.4
2017-Nov-19 13:30N 28°01' W 015°21'4 8.0
2017-Nov-19 13:01N 28°05' W 015°24'2 4.6
2017-Nov-19 12:30N 28°07' W 015°25'1 1.5
2017-Nov-19 11:51N 28°08' W 015°26'0 0.2
2017-Nov-19 11:30N 28°08' W 015°25'0 0.0
2017-Nov-19 11:00N 28°08' W 015°25'0 0.0
2017-Nov-19 10:21N 28°08' W 015°25'0 0.0
2017-Nov-19 10:00N 28°08' W 015°25'0 0.0
2017-Nov-19 09:30N 28°08' W 015°25'0 0.0
2017-Nov-19 09:00N 28°08' W 015°25'0 0.0
2017-Nov-19 08:21N 28°08' W 015°25'0 0.0
2017-Nov-19 01:19N 28°08' W 015°25'0 0.0
2017-Nov-19 00:58N 28°08' W 015°25'0 0.0
2017-Nov-19 00:28N 28°08' W 015°25'0 0.0
2017-Nov-18 23:49N 28°08' W 015°25'0 0.0
2017-Nov-18 23:16N 28°08' W 015°25'0 0.0
2017-Nov-18 22:49N 28°08' W 015°25'0 0.0
2017-Nov-18 22:22N 28°08' W 015°25'0 0.0
2017-Nov-18 21:52N 28°08' W 015°25'0 0.0
2017-Nov-18 21:22N 28°08' W 015°25'0 0.0
2017-Nov-18 20:52N 28°08' W 015°25'0 0.0
2017-Nov-18 20:22N 28°08' W 015°25'0 0.0
2017-Nov-18 19:52N 28°08' W 015°25'0 0.0
2017-Nov-18 19:25N 28°08' W 015°25'0 0.0
2017-Nov-18 18:52N 28°08' W 015°25'0 0.0
2017-Nov-18 18:25N 28°08' W 015°25'0 0.0
2017-Nov-18 17:55N 28°08' W 015°25'0 0.0
2017-Nov-18 17:25N 28°08' W 015°25'0 0.0
2017-Nov-18 16:58N 28°08' W 015°25'0 0.0
2017-Nov-18 16:28N 28°08' W 015°25'0 0.0
2017-Nov-18 15:58N 28°08' W 015°25'0 0.0
2017-Nov-18 15:28N 28°08' W 015°25'0 0.0
2017-Nov-18 14:58N 28°08' W 015°25'0 0.0
2017-Nov-18 14:28N 28°08' W 015°25'0 0.0
2017-Nov-18 13:58N 28°08' W 015°25'0 0.0
2017-Nov-18 13:28N 28°08' W 015°25'0 0.0
2017-Nov-18 12:58N 28°08' W 015°25'0 0.0
2017-Nov-18 12:28N 28°08' W 015°25'0 0.0
2017-Nov-18 11:46N 28°08' W 015°25'0 0.0
2017-Nov-18 11:28N 28°08' W 015°25'0 0.0
2017-Nov-18 10:58N 28°08' W 015°25'0 0.0
2017-Nov-18 10:28N 28°08' W 015°25'0 0.0
2017-Nov-17 23:18N 28°08' W 015°25'0 0.0
2017-Nov-17 23:00N 28°08' W 015°25'0 0.0
2017-Nov-17 22:30N 28°08' W 015°25'0 0.0
2017-Nov-17 22:00N 28°08' W 015°25'0 0.0
2017-Nov-17 21:30N 28°08' W 015°25'0 0.0
2017-Nov-17 21:00N 28°08' W 015°25'0 0.0
2017-Nov-17 20:30N 28°08' W 015°25'0 0.0
2017-Nov-17 19:48N 28°08' W 015°25'0 0.0
2017-Nov-17 19:21N 28°08' W 015°25'0 0.0
2017-Nov-17 18:57N 28°08' W 015°25'0 0.0
2017-Nov-17 18:30N 28°08' W 015°25'0 0.0
2017-Nov-17 18:00N 28°08' W 015°25'0 0.0
2017-Nov-17 17:30N 28°08' W 015°25'0 0.0
2017-Nov-17 17:00N 28°08' W 015°25'0 0.2
2017-Nov-17 16:30N 28°08' W 015°26'2 4.4
2017-Nov-17 16:00N 28°09' W 015°24'1 2.1
2017-Nov-17 15:30N 28°10' W 015°24'2 3.5
2017-Nov-17 14:59N 28°08' W 015°23'2 3.5
2017-Nov-17 14:28N 28°07' W 015°25'1 1.4
2017-Nov-17 13:50N 28°08' W 015°25'0 0.0
2017-Nov-17 13:23N 28°08' W 015°25'0 0.0
2017-Nov-17 12:38N 28°08' W 015°25'0 0.0
2017-Nov-17 12:23N 28°08' W 015°25'0 0.0
2017-Nov-17 11:53N 28°08' W 015°25'0 0.0
2017-Nov-17 11:23N 28°08' W 015°25'0 0.0
2017-Nov-17 10:56N 28°08' W 015°25'0 0.0
2017-Nov-17 10:26N 28°08' W 015°25'0 0.0
2017-Nov-17 09:50N 28°08' W 015°25'0 0.0
2017-Nov-17 09:26N 28°08' W 015°25'0 0.0
2017-Nov-17 08:56N 28°08' W 015°25'0 0.0
2017-Nov-17 08:26N 28°08' W 015°25'0 0.0
2017-Nov-17 07:59N 28°08' W 015°25'0 0.0
2017-Nov-17 07:29N 28°08' W 015°25'0 0.0
2017-Nov-17 06:59N 28°08' W 015°25'0 0.0
2017-Nov-17 06:29N 28°08' W 015°25'0 0.0
2017-Nov-17 05:41N 28°08' W 015°25'0 0.0
2017-Nov-17 05:29N 28°08' W 015°25'0 0.0
2017-Nov-17 04:59N 28°08' W 015°25'0 0.0
2017-Nov-17 04:29N 28°08' W 015°25'0 0.0
2017-Nov-17 03:59N 28°08' W 015°25'0 0.0
2017-Nov-17 03:17N 28°08' W 015°25'0 0.0
2017-Nov-17 02:59N 28°08' W 015°25'0 0.0
2017-Nov-17 02:29N 28°08' W 015°25'0 0.0
2017-Nov-17 01:59N 28°08' W 015°25'0 0.0
2017-Nov-17 01:29N 28°08' W 015°25'0 0.0
2017-Nov-17 00:50N 28°08' W 015°25'0 0.0
2017-Nov-17 00:20N 28°08' W 015°25'0 0.0
2017-Nov-16 23:53N 28°08' W 015°25'0 0.0
2017-Nov-16 23:23N 28°08' W 015°25'0 0.0
2017-Nov-16 22:53N 28°08' W 015°25'0 0.0
2017-Nov-16 22:23N 28°08' W 015°25'0 0.0
2017-Nov-16 21:05N 28°08' W 015°25'0 0.0
2017-Nov-16 20:50N 28°08' W 015°25'0 0.0
2017-Nov-16 20:20N 28°08' W 015°25'0 0.0
2017-Nov-16 19:53N 28°08' W 015°25'0 0.0
2017-Nov-16 19:23N 28°08' W 015°25'0 0.0
2017-Nov-16 18:50N 28°08' W 015°25'0 0.0
2017-Nov-16 18:23N 28°08' W 015°25'0 0.0
2017-Nov-16 17:56N 28°08' W 015°25'0 0.0
2017-Nov-16 17:26N 28°08' W 015°25'0 0.0
2017-Nov-16 16:53N 28°08' W 015°25'0 0.0
2017-Nov-16 16:26N 28°08' W 015°25'0 0.0
2017-Nov-16 01:33N 28°08' W 015°25'0 0.0
2017-Nov-16 01:30N 28°08' W 015°25'0 0.0
2017-Nov-16 01:00N 28°08' W 015°25'0 0.0
2017-Nov-16 00:30N 28°08' W 015°25'0 0.0
2017-Nov-16 00:00N 28°08' W 015°25'0 0.0
2017-Nov-15 23:30N 28°08' W 015°25'0 0.0
2017-Nov-15 23:00N 28°08' W 015°25'0 0.0
2017-Nov-15 22:30N 28°08' W 015°25'0 0.0
2017-Nov-15 22:00N 28°08' W 015°25'0 0.0
2017-Nov-15 21:21N 28°08' W 015°25'0 0.0
2017-Nov-15 20:51N 28°08' W 015°25'0 0.0
2017-Nov-15 20:21N 28°08' W 015°25'0 0.0
2017-Nov-15 19:51N 28°08' W 015°25'0 0.0
2017-Nov-15 19:24N 28°08' W 015°25'0 0.0
2017-Nov-15 18:48N 28°08' W 015°25'0 0.0
2017-Nov-15 18:18N 28°08' W 015°25'0 0.0
2017-Nov-15 17:54N 28°08' W 015°25'0 0.0
2017-Nov-15 17:24N 28°08' W 015°25'1 1.3
2017-Nov-15 16:57N 28°07' W 015°25'1 0.1
2017-Nov-15 12:30N 28°08' W 015°25'0 0.0
2017-Nov-15 11:57N 28°08' W 015°25'0 0.0
2017-Nov-15 11:30N 28°08' W 015°25'0 0.0
2017-Nov-15 11:00N 28°08' W 015°25'0 0.0
2017-Nov-15 10:22N 28°08' W 015°25'0 0.0
2017-Nov-15 09:52N 28°08' W 015°25'0 0.0
2017-Nov-15 09:07N 28°08' W 015°25'0 0.0
2017-Nov-15 08:49N 28°08' W 015°25'0 0.0
2017-Nov-15 08:22N 28°08' W 015°25'0 0.0
2017-Nov-15 07:55N 28°08' W 015°25'0 0.0
2017-Nov-15 07:25N 28°08' W 015°25'0 0.0
2017-Nov-15 06:55N 28°08' W 015°25'0 0.0
2017-Nov-15 06:25N 28°08' W 015°25'0 0.0
2017-Nov-15 05:55N 28°08' W 015°25'0 0.0
2017-Nov-15 05:28N 28°08' W 015°25'0 0.0
2017-Nov-15 04:58N 28°08' W 015°25'0 0.0
2017-Nov-15 04:28N 28°08' W 015°25'0 0.0
2017-Nov-15 03:58N 28°08' W 015°25'0 0.0
2017-Nov-15 03:28N 28°08' W 015°25'0 0.0
2017-Nov-15 02:58N 28°08' W 015°25'0 0.0
2017-Nov-15 02:28N 28°08' W 015°25'0 0.0
2017-Nov-15 01:58N 28°08' W 015°25'0 0.0
2017-Nov-15 01:28N 28°08' W 015°25'0 0.0
2017-Nov-15 00:58N 28°08' W 015°25'0 0.0
2017-Nov-15 00:16N 28°08' W 015°25'0 0.0
2017-Nov-14 23:58N 28°08' W 015°25'0 0.0
2017-Nov-14 23:19N 28°08' W 015°25'0 0.0
2017-Nov-14 22:58N 28°08' W 015°25'0 0.0
2017-Nov-14 22:19N 28°08' W 015°25'0 0.0
2017-Nov-14 21:49N 28°08' W 015°25'0 0.0
2017-Nov-14 21:19N 28°08' W 015°25'0 0.0
2017-Nov-14 20:52N 28°08' W 015°25'0 0.0
2017-Nov-14 20:22N 28°08' W 015°25'0 0.0
2017-Nov-14 19:52N 28°08' W 015°25'0 0.0
2017-Nov-14 19:22N 28°08' W 015°25'0 0.0
2017-Nov-14 18:52N 28°08' W 015°25'0 0.0
2017-Nov-14 18:25N 28°08' W 015°25'0 0.0
2017-Nov-14 17:55N 28°08' W 015°25'0 0.0
2017-Nov-14 17:25N 28°08' W 015°25'0 0.0
2017-Nov-14 16:52N 28°08' W 015°25'0 0.0
2017-Nov-14 16:25N 28°08' W 015°25'0 0.0
2017-Nov-14 15:52N 28°08' W 015°25'0 0.0
2017-Nov-14 15:25N 28°08' W 015°25'0 0.0
2017-Nov-14 14:55N 28°08' W 015°25'0 0.0
2017-Nov-14 14:28N 28°08' W 015°25'0 0.0
2017-Nov-14 13:58N 28°08' W 015°25'0 0.0
2017-Nov-14 13:25N 28°08' W 015°25'0 0.0
2017-Nov-14 12:58N 28°08' W 015°25'0 0.0
2017-Nov-14 12:28N 28°08' W 015°25'0 0.0
2017-Nov-14 11:43N 28°08' W 015°25'0 0.0
2017-Nov-14 11:28N 28°08' W 015°25'0 0.0
2017-Nov-14 10:46N 28°08' W 015°25'0 0.0
2017-Nov-14 10:28N 28°08' W 015°25'0 0.0
2017-Nov-14 09:58N 28°08' W 015°25'0 0.0
2017-Nov-14 09:28N 28°08' W 015°25'0 0.0
2017-Nov-14 08:58N 28°08' W 015°25'0 0.0
2017-Nov-14 08:19N 28°08' W 015°25'0 0.0
2017-Nov-14 07:49N 28°08' W 015°25'0 0.0
2017-Nov-14 07:19N 28°08' W 015°25'0 0.0
2017-Nov-14 06:52N 28°08' W 015°25'0 0.0
2017-Nov-14 06:22N 28°08' W 015°25'0 0.0
2017-Nov-14 05:52N 28°08' W 015°25'0 0.0
2017-Nov-14 04:49N 28°08' W 015°25'0 0.0
2017-Nov-14 04:25N 28°08' W 015°25'0 0.0
2017-Nov-14 03:55N 28°08' W 015°25'0 0.0
2017-Nov-14 03:25N 28°08' W 015°25'0 0.0
2017-Nov-14 02:40N 28°08' W 015°25'0 0.0
2017-Nov-14 02:25N 28°08' W 015°25'0 0.0
2017-Nov-14 01:55N 28°08' W 015°25'0 0.0
2017-Nov-14 01:28N 28°08' W 015°25'0 0.0
2017-Nov-14 00:55N 28°08' W 015°25'0 0.0
2017-Nov-14 00:28N 28°08' W 015°25'0 0.0
2017-Nov-13 23:55N 28°08' W 015°25'0 0.0
2017-Nov-13 23:28N 28°08' W 015°25'0 0.0
2017-Nov-13 22:55N 28°08' W 015°25'0 0.0
2017-Nov-13 22:28N 28°08' W 015°25'0 0.0
2017-Nov-13 21:58N 28°08' W 015°25'0 0.0
2017-Nov-11 20:10N 28°08' W 015°25'0 0.0
2017-Nov-11 19:52N 28°08' W 015°25'0 0.0
2017-Nov-11 19:28N 28°08' W 015°25'0 0.0
2017-Nov-11 18:58N 28°08' W 015°25'0 0.0
2017-Nov-11 18:28N 28°08' W 015°25'0 0.0
2017-Nov-11 17:58N 28°08' W 015°25'0 0.0
2017-Nov-11 17:28N 28°08' W 015°25'0 0.0
2017-Nov-11 16:58N 28°08' W 015°25'0 0.0
2017-Nov-11 16:25N 28°08' W 015°25'0 0.0
2017-Nov-11 15:58N 28°08' W 015°25'0 0.0
2017-Nov-11 12:58N 28°08' W 015°25'0 0.0
2017-Nov-11 12:19N 28°08' W 015°25'0 0.0
2017-Nov-11 11:49N 28°08' W 015°25'0 0.0
2017-Nov-10 13:13N 28°08' W 015°25'0 0.0
2017-Nov-10 12:58N 28°08' W 015°25'0 0.0
2017-Nov-10 12:28N 28°08' W 015°25'0 0.0
2017-Nov-10 11:55N 28°08' W 015°25'0 0.0
2017-Nov-10 11:28N 28°08' W 015°25'0 0.0
2017-Nov-10 10:58N 28°08' W 015°25'0 0.0
2017-Nov-10 10:16N 28°08' W 015°25'0 0.0
2017-Nov-10 09:58N 28°08' W 015°25'  

Dump ship's entire track history